sensor_id;sensor_type;location;lat;lon;timestamp;temperature;humidity
71514;DHT22;59335;46.652;21.272;2024-02-16T00:01:01;23.27;32.27
71514;DHT22;59335;46.652;21.272;2024-02-16T00:04:04;23.27;32.24
71514;DHT22;59335;46.652;21.272;2024-02-16T00:07:07;23.27;32.18
71514;DHT22;59335;46.652;21.272;2024-02-16T00:10:10;23.29;32.13
71514;DHT22;59335;46.652;21.272;2024-02-16T00:13:14;23.27;32.16
71514;DHT22;59335;46.652;21.272;2024-02-16T00:16:17;23.30;32.16
71514;DHT22;59335;46.652;21.272;2024-02-16T00:19:20;23.27;32.16
71514;DHT22;59335;46.652;21.272;2024-02-16T00:22:23;23.27;32.10
71514;DHT22;59335;46.652;21.272;2024-02-16T00:25:26;23.26;32.11
71514;DHT22;59335;46.652;21.272;2024-02-16T00:28:29;23.27;32.13
71514;DHT22;59335;46.652;21.272;2024-02-16T00:31:32;23.27;32.08
71514;DHT22;59335;46.652;21.272;2024-02-16T00:34:35;23.26;32.04
71514;DHT22;59335;46.652;21.272;2024-02-16T00:37:41;23.26;32.08
71514;DHT22;59335;46.652;21.272;2024-02-16T00:40:44;23.29;32.04
71514;DHT22;59335;46.652;21.272;2024-02-16T00:43:47;23.29;32.05
71514;DHT22;59335;46.652;21.272;2024-02-16T00:46:50;23.27;32.13
71514;DHT22;59335;46.652;21.272;2024-02-16T00:49:53;23.27;32.10
71514;DHT22;59335;46.652;21.272;2024-02-16T00:52:56;23.23;32.02
71514;DHT22;59335;46.652;21.272;2024-02-16T00:55:59;23.24;32.07
71514;DHT22;59335;46.652;21.272;2024-02-16T00:59:02;23.26;32.02
71514;DHT22;59335;46.652;21.272;2024-02-16T01:02:05;23.29;31.96
71514;DHT22;59335;46.652;21.272;2024-02-16T01:05:08;23.27;32.01
71514;DHT22;59335;46.652;21.272;2024-02-16T01:08:13;23.30;32.02
71514;DHT22;59335;46.652;21.272;2024-02-16T01:11:16;23.29;32.07
71514;DHT22;59335;46.652;21.272;2024-02-16T01:14:19;23.29;32.01
71514;DHT22;59335;46.652;21.272;2024-02-16T01:17:21;23.27;31.93
71514;DHT22;59335;46.652;21.272;2024-02-16T01:20:24;23.29;31.96
71514;DHT22;59335;46.652;21.272;2024-02-16T01:23:27;23.27;31.95
71514;DHT22;59335;46.652;21.272;2024-02-16T01:26:31;23.26;31.98
71514;DHT22;59335;46.652;21.272;2024-02-16T01:29:34;23.27;31.95
71514;DHT22;59335;46.652;21.272;2024-02-16T01:32:37;23.27;31.86
71514;DHT22;59335;46.652;21.272;2024-02-16T01:35:40;23.29;31.86
71514;DHT22;59335;46.652;21.272;2024-02-16T01:38:43;23.27;31.86
71514;DHT22;59335;46.652;21.272;2024-02-16T01:41:46;23.29;31.75
71514;DHT22;59335;46.652;21.272;2024-02-16T01:44:48;23.26;31.75
71514;DHT22;59335;46.652;21.272;2024-02-16T01:47:51;23.27;31.74
71514;DHT22;59335;46.652;21.272;2024-02-16T01:50:55;23.26;31.72
71514;DHT22;59335;46.652;21.272;2024-02-16T01:53:58;23.27;31.71
71514;DHT22;59335;46.652;21.272;2024-02-16T01:57:05;23.27;31.67
71514;DHT22;59335;46.652;21.272;2024-02-16T02:00:09;23.27;31.71
71514;DHT22;59335;46.652;21.272;2024-02-16T02:03:12;23.26;31.69
71514;DHT22;59335;46.652;21.272;2024-02-16T02:06:18;23.27;31.72
71514;DHT22;59335;46.652;21.272;2024-02-16T02:09:21;23.29;31.64
71514;DHT22;59335;46.652;21.272;2024-02-16T02:12:24;23.27;31.63
71514;DHT22;59335;46.652;21.272;2024-02-16T02:15:27;23.27;31.67
71514;DHT22;59335;46.652;21.272;2024-02-16T02:18:30;23.26;31.60
71514;DHT22;59335;46.652;21.272;2024-02-16T02:21:33;23.27;31.63
71514;DHT22;59335;46.652;21.272;2024-02-16T02:24:36;23.27;31.55
71514;DHT22;59335;46.652;21.272;2024-02-16T02:27:38;23.26;31.58
71514;DHT22;59335;46.652;21.272;2024-02-16T02:30:43;23.27;31.51
71514;DHT22;59335;46.652;21.272;2024-02-16T02:33:47;23.29;31.49
71514;DHT22;59335;46.652;21.272;2024-02-16T02:36:51;23.27;31.51
71514;DHT22;59335;46.652;21.272;2024-02-16T02:39:53;23.27;31.48
71514;DHT22;59335;46.652;21.272;2024-02-16T02:42:56;23.26;31.43
71514;DHT22;59335;46.652;21.272;2024-02-16T02:45:59;23.27;31.48
71514;DHT22;59335;46.652;21.272;2024-02-16T02:49:02;23.26;31.44
71514;DHT22;59335;46.652;21.272;2024-02-16T02:52:06;23.27;31.46
71514;DHT22;59335;46.652;21.272;2024-02-16T02:55:10;23.27;31.40
71514;DHT22;59335;46.652;21.272;2024-02-16T02:58:14;23.27;31.32
71514;DHT22;59335;46.652;21.272;2024-02-16T03:01:16;23.30;31.37
71514;DHT22;59335;46.652;21.272;2024-02-16T03:04:22;23.27;31.33
71514;DHT22;59335;46.652;21.272;2024-02-16T03:07:25;23.27;31.31
71514;DHT22;59335;46.652;21.272;2024-02-16T03:10:28;23.27;31.31
71514;DHT22;59335;46.652;21.272;2024-02-16T03:13:37;23.27;31.28
71514;DHT22;59335;46.652;21.272;2024-02-16T03:16:40;23.29;31.26
71514;DHT22;59335;46.652;21.272;2024-02-16T03:19:42;23.26;31.25
71514;DHT22;59335;46.652;21.272;2024-02-16T03:22:46;23.26;31.19
71514;DHT22;59335;46.652;21.272;2024-02-16T03:25:48;23.26;31.17
71514;DHT22;59335;46.652;21.272;2024-02-16T03:28:52;23.24;31.17
71514;DHT22;59335;46.652;21.272;2024-02-16T03:31:55;23.27;31.14
71514;DHT22;59335;46.652;21.272;2024-02-16T03:34:58;23.26;31.17
71514;DHT22;59335;46.652;21.272;2024-02-16T03:38:04;23.27;31.11
71514;DHT22;59335;46.652;21.272;2024-02-16T03:41:07;23.26;31.19
71514;DHT22;59335;46.652;21.272;2024-02-16T03:44:10;23.24;31.14
71514;DHT22;59335;46.652;21.272;2024-02-16T03:47:13;23.27;31.07
71514;DHT22;59335;46.652;21.272;2024-02-16T03:50:16;23.24;31.08
71514;DHT22;59335;46.652;21.272;2024-02-16T03:53:18;23.27;31.04
71514;DHT22;59335;46.652;21.272;2024-02-16T03:56:21;23.27;31.02
71514;DHT22;59335;46.652;21.272;2024-02-16T03:59:24;23.29;30.98
71514;DHT22;59335;46.652;21.272;2024-02-16T04:02:27;23.24;30.99
71514;DHT22;59335;46.652;21.272;2024-02-16T04:05:30;23.27;30.94
71514;DHT22;59335;46.652;21.272;2024-02-16T04:08:35;23.24;30.94
71514;DHT22;59335;46.652;21.272;2024-02-16T04:11:38;23.27;30.91
71514;DHT22;59335;46.652;21.272;2024-02-16T04:14:41;23.26;30.96
71514;DHT22;59335;46.652;21.272;2024-02-16T04:17:47;23.27;31.02
71514;DHT22;59335;46.652;21.272;2024-02-16T04:20:51;23.26;30.94
71514;DHT22;59335;46.652;21.272;2024-02-16T04:23:54;23.26;30.97
71514;DHT22;59335;46.652;21.272;2024-02-16T04:26:57;23.27;30.98
71514;DHT22;59335;46.652;21.272;2024-02-16T04:30:00;23.27;31.07
71514;DHT22;59335;46.652;21.272;2024-02-16T04:33:04;23.27;30.98
71514;DHT22;59335;46.652;21.272;2024-02-16T04:36:08;23.26;30.94
71514;DHT22;59335;46.652;21.272;2024-02-16T04:39:11;23.26;30.90
71514;DHT22;59335;46.652;21.272;2024-02-16T04:42:15;23.27;30.88
71514;DHT22;59335;46.652;21.272;2024-02-16T04:45:18;23.27;30.84
71514;DHT22;59335;46.652;21.272;2024-02-16T04:48:22;23.27;30.85
71514;DHT22;59335;46.652;21.272;2024-02-16T04:51:25;23.27;30.81
71514;DHT22;59335;46.652;21.272;2024-02-16T04:54:29;23.27;30.76
71514;DHT22;59335;46.652;21.272;2024-02-16T04:57:33;23.26;30.73
71514;DHT22;59335;46.652;21.272;2024-02-16T05:00:39;23.27;30.72
71514;DHT22;59335;46.652;21.272;2024-02-16T05:03:42;23.27;30.69
71514;DHT22;59335;46.652;21.272;2024-02-16T05:06:46;23.27;30.75
71514;DHT22;59335;46.652;21.272;2024-02-16T05:09:53;23.26;30.78
71514;DHT22;59335;46.652;21.272;2024-02-16T05:13:00;23.27;30.76
71514;DHT22;59335;46.652;21.272;2024-02-16T05:16:10;23.27;30.81
71514;DHT22;59335;46.652;21.272;2024-02-16T05:19:14;23.26;30.76
71514;DHT22;59335;46.652;21.272;2024-02-16T05:22:17;23.27;30.78
71514;DHT22;59335;46.652;21.272;2024-02-16T05:25:21;23.26;31.04
71514;DHT22;59335;46.652;21.272;2024-02-16T05:28:24;23.29;30.99
71514;DHT22;59335;46.652;21.272;2024-02-16T05:31:27;23.27;31.07
71514;DHT22;59335;46.652;21.272;2024-02-16T05:34:30;23.27;30.98
71514;DHT22;59335;46.652;21.272;2024-02-16T05:37:41;23.29;30.90
71514;DHT22;59335;46.652;21.272;2024-02-16T05:40:50;23.29;30.84
71514;DHT22;59335;46.652;21.272;2024-02-16T05:43:59;23.27;30.76
71514;DHT22;59335;46.652;21.272;2024-02-16T05:47:02;23.29;30.78
71514;DHT22;59335;46.652;21.272;2024-02-16T05:50:05;23.30;30.84
71514;DHT22;59335;46.652;21.272;2024-02-16T05:53:10;23.29;30.79
71514;DHT22;59335;46.652;21.272;2024-02-16T05:56:13;23.29;30.78
71514;DHT22;59335;46.652;21.272;2024-02-16T05:59:15;23.32;30.77
71514;DHT22;59335;46.652;21.272;2024-02-16T06:02:18;23.30;30.80
71514;DHT22;59335;46.652;21.272;2024-02-16T06:05:21;23.33;30.87
71514;DHT22;59335;46.652;21.272;2024-02-16T06:08:24;23.33;30.98
71514;DHT22;59335;46.652;21.272;2024-02-16T06:11:31;23.33;30.92
71514;DHT22;59335;46.652;21.272;2024-02-16T06:14:34;23.36;31.22
71514;DHT22;59335;46.652;21.272;2024-02-16T06:17:39;23.38;31.38
71514;DHT22;59335;46.652;21.272;2024-02-16T06:20:43;23.40;31.46
71514;DHT22;59335;46.652;21.272;2024-02-16T06:23:46;23.42;31.34
71514;DHT22;59335;46.652;21.272;2024-02-16T06:26:49;23.46;31.40
71514;DHT22;59335;46.652;21.272;2024-02-16T06:29:58;23.56;31.50
71514;DHT22;59335;46.652;21.272;2024-02-16T06:33:03;23.56;31.58
71514;DHT22;59335;46.652;21.272;2024-02-16T06:36:06;23.56;32.29
71514;DHT22;59335;46.652;21.272;2024-02-16T06:39:11;23.63;32.05
71514;DHT22;59335;46.652;21.272;2024-02-16T06:42:14;23.63;32.66
71514;DHT22;59335;46.652;21.272;2024-02-16T06:45:16;23.73;32.90
71514;DHT22;59335;46.652;21.272;2024-02-16T06:48:22;23.80;32.95
71514;DHT22;59335;46.652;21.272;2024-02-16T06:51:25;23.84;33.01
71514;DHT22;59335;46.652;21.272;2024-02-16T06:54:31;23.85;32.96
71514;DHT22;59335;46.652;21.272;2024-02-16T06:57:34;23.90;33.54
71514;DHT22;59335;46.652;21.272;2024-02-16T07:00:37;23.90;33.37
71514;DHT22;59335;46.652;21.272;2024-02-16T07:03:40;23.93;33.51
71514;DHT22;59335;46.652;21.272;2024-02-16T07:06:44;23.96;33.39
71514;DHT22;59335;46.652;21.272;2024-02-16T07:09:50;24.00;33.24
71514;DHT22;59335;46.652;21.272;2024-02-16T07:12:53;24.02;33.24
71514;DHT22;59335;46.652;21.272;2024-02-16T07:15:58;24.05;33.27
71514;DHT22;59335;46.652;21.272;2024-02-16T07:19:03;24.11;33.13
71514;DHT22;59335;46.652;21.272;2024-02-16T07:22:06;24.11;33.11
71514;DHT22;59335;46.652;21.272;2024-02-16T07:25:10;24.14;33.01
71514;DHT22;59335;46.652;21.272;2024-02-16T07:28:17;24.19;32.94
71514;DHT22;59335;46.652;21.272;2024-02-16T07:31:20;24.25;32.85
71514;DHT22;59335;46.652;21.272;2024-02-16T07:34:24;24.30;32.72
71514;DHT22;59335;46.652;21.272;2024-02-16T07:37:28;24.32;32.74
71514;DHT22;59335;46.652;21.272;2024-02-16T07:40:33;24.32;32.74
71514;DHT22;59335;46.652;21.272;2024-02-16T07:43:36;24.40;32.62
71514;DHT22;59335;46.652;21.272;2024-02-16T07:46:42;24.43;32.67
71514;DHT22;59335;46.652;21.272;2024-02-16T07:49:45;24.43;32.76
71514;DHT22;59335;46.652;21.272;2024-02-16T07:52:50;24.38;32.50
71514;DHT22;59335;46.652;21.272;2024-02-16T07:55:54;24.42;32.96
71514;DHT22;59335;46.652;21.272;2024-02-16T07:59:00;24.45;33.10
71514;DHT22;59335;46.652;21.272;2024-02-16T08:02:06;24.51;33.20
71514;DHT22;59335;46.652;21.272;2024-02-16T08:05:13;24.55;33.44
71514;DHT22;59335;46.652;21.272;2024-02-16T08:08:18;24.60;33.34
71514;DHT22;59335;46.652;21.272;2024-02-16T08:11:26;24.67;33.28
71514;DHT22;59335;46.652;21.272;2024-02-16T08:14:31;24.70;33.15
71514;DHT22;59335;46.652;21.272;2024-02-16T08:17:35;24.73;33.15
71514;DHT22;59335;46.652;21.272;2024-02-16T08:20:42;24.74;33.15
71514;DHT22;59335;46.652;21.272;2024-02-16T08:23:45;24.77;33.14
71514;DHT22;59335;46.652;21.272;2024-02-16T08:26:51;24.80;33.11
71514;DHT22;59335;46.652;21.272;2024-02-16T08:29:54;24.79;33.08
71514;DHT22;59335;46.652;21.272;2024-02-16T08:32:57;24.82;33.19
71514;DHT22;59335;46.652;21.272;2024-02-16T08:36:01;24.82;33.04
71514;DHT22;59335;46.652;21.272;2024-02-16T08:39:05;24.87;33.00
71514;DHT22;59335;46.652;21.272;2024-02-16T08:42:08;24.88;33.09
71514;DHT22;59335;46.652;21.272;2024-02-16T08:45:15;24.88;33.16
71514;DHT22;59335;46.652;21.272;2024-02-16T08:48:20;24.90;33.20
71514;DHT22;59335;46.652;21.272;2024-02-16T08:51:24;24.83;33.30
71514;DHT22;59335;46.652;21.272;2024-02-16T08:54:26;24.84;33.69
71514;DHT22;59335;46.652;21.272;2024-02-16T08:57:31;24.83;33.84
71514;DHT22;59335;46.652;21.272;2024-02-16T09:00:37;24.83;33.99
71514;DHT22;59335;46.652;21.272;2024-02-16T09:03:45;24.79;34.42
71514;DHT22;59335;46.652;21.272;2024-02-16T09:06:49;24.70;33.89
71514;DHT22;59335;46.652;21.272;2024-02-16T09:09:54;24.56;33.85
71514;DHT22;59335;46.652;21.272;2024-02-16T09:12:57;24.43;32.36
71514;DHT22;59335;46.652;21.272;2024-02-16T09:16:00;24.26;31.53
71514;DHT22;59335;46.652;21.272;2024-02-16T09:19:03;24.25;31.45
71514;DHT22;59335;46.652;21.272;2024-02-16T09:22:07;23.94;29.01
71514;DHT22;59335;46.652;21.272;2024-02-16T09:25:10;23.87;28.15
71514;DHT22;59335;46.652;21.272;2024-02-16T09:28:13;23.77;28.60
71514;DHT22;59335;46.652;21.272;2024-02-16T09:31:27;23.87;29.91
71514;DHT22;59335;46.652;21.272;2024-02-16T09:34:30;23.94;29.43
71514;DHT22;59335;46.652;21.272;2024-02-16T09:37:35;24.04;29.24
71514;DHT22;59335;46.652;21.272;2024-02-16T09:40:41;24.11;29.54
71514;DHT22;59335;46.652;21.272;2024-02-16T09:43:44;24.11;29.83
71514;DHT22;59335;46.652;21.272;2024-02-16T09:46:47;24.14;30.03
71514;DHT22;59335;46.652;21.272;2024-02-16T09:49:54;24.12;30.01
71514;DHT22;59335;46.652;21.272;2024-02-16T09:52:57;24.21;30.06
71514;DHT22;59335;46.652;21.272;2024-02-16T09:56:05;24.22;30.49
71514;DHT22;59335;46.652;21.272;2024-02-16T09:59:10;24.35;31.10
71514;DHT22;59335;46.652;21.272;2024-02-16T10:02:14;24.42;31.66
71514;DHT22;59335;46.652;21.272;2024-02-16T10:05:21;24.42;32.09
71514;DHT22;59335;46.652;21.272;2024-02-16T10:08:26;24.40;31.92
71514;DHT22;59335;46.652;21.272;2024-02-16T10:11:30;24.35;31.78
71514;DHT22;59335;46.652;21.272;2024-02-16T10:14:55;24.30;31.77
71514;DHT22;59335;46.652;21.272;2024-02-16T10:18:02;24.28;31.77
71514;DHT22;59335;46.652;21.272;2024-02-16T10:21:05;24.24;31.77
71514;DHT22;59335;46.652;21.272;2024-02-16T10:24:12;24.25;31.76
71514;DHT22;59335;46.652;21.272;2024-02-16T10:27:17;24.26;31.76
71514;DHT22;59335;46.652;21.272;2024-02-16T10:30:22;24.25;31.80
71514;DHT22;59335;46.652;21.272;2024-02-16T10:33:31;24.25;31.86
71514;DHT22;59335;46.652;21.272;2024-02-16T10:36:37;24.24;31.83
71514;DHT22;59335;46.652;21.272;2024-02-16T10:39:41;24.26;31.90
71514;DHT22;59335;46.652;21.272;2024-02-16T10:42:49;24.21;31.98
71514;DHT22;59335;46.652;21.272;2024-02-16T10:45:54;24.25;32.03
71514;DHT22;59335;46.652;21.272;2024-02-16T10:49:00;24.19;31.64
71514;DHT22;59335;46.652;21.272;2024-02-16T10:52:07;24.26;32.11
71514;DHT22;59335;46.652;21.272;2024-02-16T10:55:11;24.26;32.42
71514;DHT22;59335;46.652;21.272;2024-02-16T10:58:18;24.24;32.61
71514;DHT22;59335;46.652;21.272;2024-02-16T11:01:22;24.25;32.56
71514;DHT22;59335;46.652;21.272;2024-02-16T11:04:38;24.26;32.61
71514;DHT22;59335;46.652;21.272;2024-02-16T11:07:42;24.21;32.53
71514;DHT22;59335;46.652;21.272;2024-02-16T11:10:59;24.21;32.64
71514;DHT22;59335;46.652;21.272;2024-02-16T11:14:03;24.18;32.68
71514;DHT22;59335;46.652;21.272;2024-02-16T11:17:21;24.18;32.71
71514;DHT22;59335;46.652;21.272;2024-02-16T11:20:27;24.17;32.69
71514;DHT22;59335;46.652;21.272;2024-02-16T11:23:37;24.19;32.72
71514;DHT22;59335;46.652;21.272;2024-02-16T11:26:48;24.15;32.78
71514;DHT22;59335;46.652;21.272;2024-02-16T11:29:58;24.17;32.83
71514;DHT22;59335;46.652;21.272;2024-02-16T11:33:03;24.15;32.83
71514;DHT22;59335;46.652;21.272;2024-02-16T11:36:07;24.15;32.89
71514;DHT22;59335;46.652;21.272;2024-02-16T11:39:13;24.14;32.84
71514;DHT22;59335;46.652;21.272;2024-02-16T11:42:19;24.15;32.89
71514;DHT22;59335;46.652;21.272;2024-02-16T11:45:25;24.17;33.00
71514;DHT22;59335;46.652;21.272;2024-02-16T11:48:28;24.07;32.59
71514;DHT22;59335;46.652;21.272;2024-02-16T11:51:34;24.11;32.98
71514;DHT22;59335;46.652;21.272;2024-02-16T11:54:38;24.08;32.99
71514;DHT22;59335;46.652;21.272;2024-02-16T11:57:47;24.07;33.17
71514;DHT22;59335;46.652;21.272;2024-02-16T12:00:53;24.05;33.15
71514;DHT22;59335;46.652;21.272;2024-02-16T12:03:56;24.07;33.19
71514;DHT22;59335;46.652;21.272;2024-02-16T12:07:00;24.05;32.94
71514;DHT22;59335;46.652;21.272;2024-02-16T12:10:08;24.02;32.85
71514;DHT22;59335;46.652;21.272;2024-02-16T12:13:11;24.07;33.09
71514;DHT22;59335;46.652;21.272;2024-02-16T12:16:18;24.08;33.08
71514;DHT22;59335;46.652;21.272;2024-02-16T12:19:22;24.09;33.08
71514;DHT22;59335;46.652;21.272;2024-02-16T12:22:25;24.07;33.12
71514;DHT22;59335;46.652;21.272;2024-02-16T12:25:29;24.05;33.17
71514;DHT22;59335;46.652;21.272;2024-02-16T12:28:32;24.05;33.40
71514;DHT22;59335;46.652;21.272;2024-02-16T12:31:35;24.08;33.17
71514;DHT22;59335;46.652;21.272;2024-02-16T12:34:43;24.05;33.38
71514;DHT22;59335;46.652;21.272;2024-02-16T12:37:46;24.05;33.36
71514;DHT22;59335;46.652;21.272;2024-02-16T12:40:50;24.07;33.34
71514;DHT22;59335;46.652;21.272;2024-02-16T12:43:53;24.09;33.32
71514;DHT22;59335;46.652;21.272;2024-02-16T12:46:56;24.08;33.43
71514;DHT22;59335;46.652;21.272;2024-02-16T12:49:59;24.05;33.59
71514;DHT22;59335;46.652;21.272;2024-02-16T12:53:04;24.07;33.65
71514;DHT22;59335;46.652;21.272;2024-02-16T12:56:08;24.07;33.79
71514;DHT22;59335;46.652;21.272;2024-02-16T12:59:12;24.04;33.65
71514;DHT22;59335;46.652;21.272;2024-02-16T13:02:15;24.05;33.55
71514;DHT22;59335;46.652;21.272;2024-02-16T13:05:18;24.04;33.68
71514;DHT22;59335;46.652;21.272;2024-02-16T13:08:21;24.01;33.62
71514;DHT22;59335;46.652;21.272;2024-02-16T13:11:24;23.98;33.57
71514;DHT22;59335;46.652;21.272;2024-02-16T13:14:27;24.00;33.64
71514;DHT22;59335;46.652;21.272;2024-02-16T13:17:30;23.97;33.53
71514;DHT22;59335;46.652;21.272;2024-02-16T13:20:37;23.97;33.51
71514;DHT22;59335;46.652;21.272;2024-02-16T13:23:40;23.98;33.44
71514;DHT22;59335;46.652;21.272;2024-02-16T13:26:43;24.01;33.41
71514;DHT22;59335;46.652;21.272;2024-02-16T13:29:46;23.98;33.32
71514;DHT22;59335;46.652;21.272;2024-02-16T13:32:50;23.96;33.16
71514;DHT22;59335;46.652;21.272;2024-02-16T13:35:52;23.97;33.21
71514;DHT22;59335;46.652;21.272;2024-02-16T13:38:57;23.96;32.96
71514;DHT22;59335;46.652;21.272;2024-02-16T13:42:00;23.96;32.84
71514;DHT22;59335;46.652;21.272;2024-02-16T13:45:03;23.94;32.90
71514;DHT22;59335;46.652;21.272;2024-02-16T13:48:09;23.91;32.81
71514;DHT22;59335;46.652;21.272;2024-02-16T13:51:13;23.93;32.73
71514;DHT22;59335;46.652;21.272;2024-02-16T13:54:15;23.96;32.72
71514;DHT22;59335;46.652;21.272;2024-02-16T13:57:20;23.91;32.09
71514;DHT22;59335;46.652;21.272;2024-02-16T14:00:23;23.88;31.53
71514;DHT22;59335;46.652;21.272;2024-02-16T14:03:27;23.88;31.72
71514;DHT22;59335;46.652;21.272;2024-02-16T14:06:31;23.90;31.62
71514;DHT22;59335;46.652;21.272;2024-02-16T14:09:34;23.93;31.54
71514;DHT22;59335;46.652;21.272;2024-02-16T14:12:41;23.93;31.44
71514;DHT22;59335;46.652;21.272;2024-02-16T14:15:47;23.91;31.32
71514;DHT22;59335;46.652;21.272;2024-02-16T14:18:50;23.93;31.33
71514;DHT22;59335;46.652;21.272;2024-02-16T14:21:57;23.90;31.23
71514;DHT22;59335;46.652;21.272;2024-02-16T14:25:03;23.93;31.30
71514;DHT22;59335;46.652;21.272;2024-02-16T14:28:07;23.94;31.32
71514;DHT22;59335;46.652;21.272;2024-02-16T14:31:12;23.93;31.20
71514;DHT22;59335;46.652;21.272;2024-02-16T14:34:19;23.94;31.17
71514;DHT22;59335;46.652;21.272;2024-02-16T14:37:27;23.93;31.24
71514;DHT22;59335;46.652;21.272;2024-02-16T14:40:31;23.96;31.14
71514;DHT22;59335;46.652;21.272;2024-02-16T14:43:35;23.94;30.73
71514;DHT22;59335;46.652;21.272;2024-02-16T14:46:39;23.94;31.36
71514;DHT22;59335;46.652;21.272;2024-02-16T14:49:49;23.96;31.13
71514;DHT22;59335;46.652;21.272;2024-02-16T14:52:52;23.93;31.11
71514;DHT22;59335;46.652;21.272;2024-02-16T14:55:56;23.88;30.90
71514;DHT22;59335;46.652;21.272;2024-02-16T14:58:59;23.85;30.63
71514;DHT22;59335;46.652;21.272;2024-02-16T15:02:02;23.81;30.81
71514;DHT22;59335;46.652;21.272;2024-02-16T15:05:06;23.78;30.61
71514;DHT22;59335;46.652;21.272;2024-02-16T15:08:09;23.74;30.09
71514;DHT22;59335;46.652;21.272;2024-02-16T15:11:12;23.75;29.86
71514;DHT22;59335;46.652;21.272;2024-02-16T15:14:15;23.71;29.67
71514;DHT22;59335;46.652;21.272;2024-02-16T15:17:21;23.70;29.47
71514;DHT22;59335;46.652;21.272;2024-02-16T15:20:24;23.67;29.38
71514;DHT22;59335;46.652;21.272;2024-02-16T15:23:28;23.63;28.54
71514;DHT22;59335;46.652;21.272;2024-02-16T15:26:30;23.60;27.98
71514;DHT22;59335;46.652;21.272;2024-02-16T15:29:33;23.59;30.42
71514;DHT22;59335;46.652;21.272;2024-02-16T15:32:36;23.56;32.56
71514;DHT22;59335;46.652;21.272;2024-02-16T15:35:39;23.47;33.60
71514;DHT22;59335;46.652;21.272;2024-02-16T15:38:41;23.49;34.01
71514;DHT22;59335;46.652;21.272;2024-02-16T15:41:44;23.50;33.90
71514;DHT22;59335;46.652;21.272;2024-02-16T15:44:47;23.50;33.75
71514;DHT22;59335;46.652;21.272;2024-02-16T15:47:53;23.53;33.70
71514;DHT22;59335;46.652;21.272;2024-02-16T15:50:56;23.53;33.55
71514;DHT22;59335;46.652;21.272;2024-02-16T15:54:01;23.53;33.35
71514;DHT22;59335;46.652;21.272;2024-02-16T15:57:04;23.54;33.62
71514;DHT22;59335;46.652;21.272;2024-02-16T16:00:08;23.57;33.49
71514;DHT22;59335;46.652;21.272;2024-02-16T16:03:11;23.57;33.44
71514;DHT22;59335;46.652;21.272;2024-02-16T16:06:15;23.56;33.49
71514;DHT22;59335;46.652;21.272;2024-02-16T16:09:18;23.54;33.54
71514;DHT22;59335;46.652;21.272;2024-02-16T16:12:21;23.56;33.44
71514;DHT22;59335;46.652;21.272;2024-02-16T16:15:25;23.51;33.45
71514;DHT22;59335;46.652;21.272;2024-02-16T16:18:28;23.53;33.46
71514;DHT22;59335;46.652;21.272;2024-02-16T16:21:36;23.56;33.40
71514;DHT22;59335;46.652;21.272;2024-02-16T16:24:39;23.54;33.41
71514;DHT22;59335;46.652;21.272;2024-02-16T16:27:46;23.54;33.41
71514;DHT22;59335;46.652;21.272;2024-02-16T16:30:52;23.51;33.32
71514;DHT22;59335;46.652;21.272;2024-02-16T16:33:55;23.53;33.26
71514;DHT22;59335;46.652;21.272;2024-02-16T16:36:58;23.53;33.28
71514;DHT22;59335;46.652;21.272;2024-02-16T16:40:02;23.51;33.25
71514;DHT22;59335;46.652;21.272;2024-02-16T16:43:05;23.51;33.25
71514;DHT22;59335;46.652;21.272;2024-02-16T16:46:08;23.50;33.23
71514;DHT22;59335;46.652;21.272;2024-02-16T16:49:11;23.51;33.23
71514;DHT22;59335;46.652;21.272;2024-02-16T16:52:17;23.51;33.21
71514;DHT22;59335;46.652;21.272;2024-02-16T16:55:20;23.50;33.33
71514;DHT22;59335;46.652;21.272;2024-02-16T16:58:23;23.50;33.26
71514;DHT22;59335;46.652;21.272;2024-02-16T17:01:26;23.51;33.18
71514;DHT22;59335;46.652;21.272;2024-02-16T17:04:30;23.50;33.11
71514;DHT22;59335;46.652;21.272;2024-02-16T17:07:35;23.49;32.98
71514;DHT22;59335;46.652;21.272;2024-02-16T17:10:38;23.49;32.97
71514;DHT22;59335;46.652;21.272;2024-02-16T17:13:41;23.49;32.88
71514;DHT22;59335;46.652;21.272;2024-02-16T17:16:46;23.46;32.78
71514;DHT22;59335;46.652;21.272;2024-02-16T17:19:49;23.49;32.82
71514;DHT22;59335;46.652;21.272;2024-02-16T17:22:53;23.47;32.76
71514;DHT22;59335;46.652;21.272;2024-02-16T17:25:57;23.47;32.71
71514;DHT22;59335;46.652;21.272;2024-02-16T17:29:00;23.50;32.69
71514;DHT22;59335;46.652;21.272;2024-02-16T17:32:03;23.47;32.72
71514;DHT22;59335;46.652;21.272;2024-02-16T17:35:07;23.46;32.66
71514;DHT22;59335;46.652;21.272;2024-02-16T17:38:11;23.47;32.71
71514;DHT22;59335;46.652;21.272;2024-02-16T17:41:20;23.47;32.68
71514;DHT22;59335;46.652;21.272;2024-02-16T17:44:23;23.46;32.66
71514;DHT22;59335;46.652;21.272;2024-02-16T17:47:26;23.45;32.69
71514;DHT22;59335;46.652;21.272;2024-02-16T17:50:30;23.46;32.57
71514;DHT22;59335;46.652;21.272;2024-02-16T17:53:33;23.45;32.57
71514;DHT22;59335;46.652;21.272;2024-02-16T17:56:36;23.43;32.58
71514;DHT22;59335;46.652;21.272;2024-02-16T17:59:38;23.45;32.46
71514;DHT22;59335;46.652;21.272;2024-02-16T18:02:42;23.43;32.47
71514;DHT22;59335;46.652;21.272;2024-02-16T18:05:49;23.43;32.34
71514;DHT22;59335;46.652;21.272;2024-02-16T18:08:52;23.40;32.32
71514;DHT22;59335;46.652;21.272;2024-02-16T18:11:54;23.42;32.29
71514;DHT22;59335;46.652;21.272;2024-02-16T18:14:57;23.43;32.31
71514;DHT22;59335;46.652;21.272;2024-02-16T18:18:00;23.43;32.26
71514;DHT22;59335;46.652;21.272;2024-02-16T18:21:03;23.42;32.29
71514;DHT22;59335;46.652;21.272;2024-02-16T18:24:06;23.43;32.26
71514;DHT22;59335;46.652;21.272;2024-02-16T18:27:09;23.42;32.23
71514;DHT22;59335;46.652;21.272;2024-02-16T18:30:12;23.43;32.13
71514;DHT22;59335;46.652;21.272;2024-02-16T18:33:15;23.40;32.08
71514;DHT22;59335;46.652;21.272;2024-02-16T18:36:18;23.42;32.08
71514;DHT22;59335;46.652;21.272;2024-02-16T18:39:21;23.40;32.05
71514;DHT22;59335;46.652;21.272;2024-02-16T18:42:26;23.40;32.05
71514;DHT22;59335;46.652;21.272;2024-02-16T18:45:32;23.42;32.07
71514;DHT22;59335;46.652;21.272;2024-02-16T18:48:35;23.38;32.00
71514;DHT22;59335;46.652;21.272;2024-02-16T18:51:40;23.39;32.02
71514;DHT22;59335;46.652;21.272;2024-02-16T18:54:44;23.38;31.94
71514;DHT22;59335;46.652;21.272;2024-02-16T18:57:48;23.40;31.82
71514;DHT22;59335;46.652;21.272;2024-02-16T19:00:51;23.39;31.82
71514;DHT22;59335;46.652;21.272;2024-02-16T19:03:54;23.39;31.87